createdAt,value
2022-11-03T00:01:20.377Z,-11097.41
2022-11-03T00:04:26.135Z,-11097.00
2022-11-03T00:07:32.013Z,-11082.81
2022-11-03T00:10:37.840Z,-11079.03
2022-11-03T00:13:44.881Z,-11080.16
2022-11-03T00:16:52.367Z,-11070.59
2022-11-03T00:19:58.544Z,-11079.59
2022-11-03T00:23:05.093Z,-11095.31
2022-11-03T00:26:14.537Z,-11080.28
2022-11-03T00:29:21.717Z,-11098.97
2022-11-03T00:32:29.122Z,-11095.72
2022-11-03T00:35:35.585Z,-11099.81
2022-11-03T00:38:42.142Z,-11106.00
2022-11-03T00:41:48.761Z,-11097.84
2022-11-03T00:44:54.701Z,-11100.94
2022-11-03T00:48:20.205Z,-11070.19
2022-11-03T00:51:30.091Z,-11058.69
2022-11-03T00:54:36.298Z,-11053.91
2022-11-03T00:57:42.496Z,-11050.13
2022-11-03T01:00:49.009Z,-11051.66
2022-11-03T01:04:16.102Z,-11080.00
2022-11-03T01:07:22.651Z,-11088.44
2022-11-03T01:10:28.781Z,-11098.97
2022-11-03T01:13:34.868Z,-11093.63
2022-11-03T01:16:41.901Z,-11065.28
2022-11-03T01:19:49.666Z,-11073.12
2022-11-03T01:22:55.601Z,-11089.97
2022-11-03T01:26:06.044Z,-11082.13
2022-11-03T01:29:12.368Z,-11071.03
2022-11-03T01:32:18.964Z,-11068.34
2022-11-03T01:35:26.859Z,-11060.50
2022-11-03T01:38:34.005Z,-11077.63
2022-11-03T01:41:41.255Z,-11094.03
2022-11-03T01:44:50.060Z,-11094.03
2022-11-03T01:47:56.504Z,-11097.56
2022-11-03T01:51:06.773Z,-11098.41
2022-11-03T01:54:16.621Z,-11097.56
2022-11-03T01:57:28.521Z,-11093.34
2022-11-03T02:00:34.887Z,-11077.63
2022-11-03T02:03:44.408Z,-11068.06
2022-11-03T02:06:59.104Z,-11067.22
2022-11-03T02:10:06.872Z,-11064.16
2022-11-03T02:13:19.805Z,-11064.16
2022-11-03T02:16:30.506Z,-11076.06
2022-11-03T02:19:42.187Z,-11073.97
2022-11-03T02:23:19.381Z,-11073.84
2022-11-03T02:26:27.008Z,-11062.31
2022-11-03T02:29:33.396Z,-11066.94
2022-11-03T02:32:51.061Z,-11079.44
2022-11-03T02:36:02.862Z,-11085.75
2022-11-03T02:39:16.227Z,-11072.28
2022-11-03T02:42:25.829Z,-11071.72
2022-11-03T02:45:32.544Z,-11094.19
2022-11-03T02:48:38.991Z,-11089.00
2022-11-03T02:51:45.409Z,-11094.75
2022-11-03T02:54:53.396Z,-11101.22
2022-11-03T02:58:07.521Z,-11091.66
2022-11-03T03:01:19.013Z,-11059.81
2022-11-03T03:04:30.529Z,-11076.50
2022-11-03T03:07:42.758Z,-11079.72
2022-11-03T03:10:50.135Z,-11087.59
2022-11-03T03:13:57.718Z,-11090.25
2022-11-03T03:17:10.282Z,-11086.59
2022-11-03T03:20:24.464Z,-11085.34
2022-11-03T03:23:36.900Z,-11073.97
2022-11-03T03:26:46.191Z,-11073.69
2022-11-03T03:29:57.112Z,-11080.72
2022-11-03T03:33:06.141Z,-11081.13
2022-11-03T03:36:17.660Z,-11095.03
2022-11-03T03:39:27.060Z,-11103.47
2022-11-03T03:42:35.907Z,-11091.94
2022-11-03T03:45:45.582Z,-11089.56
2022-11-03T03:48:51.612Z,-11092.78
2022-11-03T03:51:57.866Z,-11094.19
2022-11-03T03:55:04.135Z,-11087.44
2022-11-03T03:58:13.423Z,-11094.47
2022-11-03T04:01:21.185Z,-11105.44
2022-11-03T04:04:27.347Z,-11109.63
2022-11-03T04:07:48.529Z,-11096.72
2022-11-03T04:11:12.245Z,-11093.91
2022-11-03T04:14:35.730Z,-11090.97
2022-11-03T04:18:03.461Z,-11110.06
2022-11-03T04:21:30.663Z,-11104.88
2022-11-03T04:24:36.577Z,-11107.13
2022-11-03T04:27:42.620Z,-11092.66
2022-11-03T04:30:48.854Z,-11068.34
2022-11-03T04:33:56.462Z,-11085.34
2022-11-03T04:37:03.073Z,-11081.97
2022-11-03T04:40:16.171Z,-11097.13
2022-11-03T04:43:25.955Z,-11094.75
2022-11-03T04:46:33.175Z,-11104.59
2022-11-03T04:49:40.904Z,-11099.53
2022-11-03T04:52:48.219Z,-11087.44
2022-11-03T04:55:56.167Z,-11075.09
2022-11-03T04:59:02.482Z,-11080.72
2022-11-03T05:02:14.504Z,-11076.22
2022-11-03T05:05:24.469Z,-11081.13
2022-11-03T05:08:30.561Z,-11072.00
2022-11-03T05:11:39.996Z,-11065.41
2022-11-03T05:14:46.257Z,-11061.19
2022-11-03T05:17:52.399Z,-11075.66
2022-11-03T05:21:02.511Z,-11095.03
2022-11-03T05:27:23.442Z,-11083.22
2022-11-03T05:30:29.665Z,-11095.03
2022-11-03T05:33:37.112Z,-11096.16
2022-11-03T05:36:44.955Z,-11092.22
2022-11-03T05:39:52.365Z,-11086.59
2022-11-03T05:43:02.325Z,-11085.34
2022-11-03T05:46:12.982Z,-11078.31
2022-11-03T05:49:20.371Z,-11088.28
2022-11-03T05:52:29.465Z,-11091.25
2022-11-03T05:55:37.070Z,-11104.16
2022-11-03T05:58:45.564Z,-11109.22
2022-11-03T06:01:53.217Z,-11121.44
2022-11-03T06:04:59.513Z,-11119.47
2022-11-03T06:08:20.446Z,-11118.91
2022-11-03T06:11:32.668Z,-11114.28
2022-11-03T06:14:38.929Z,-11129.88
2022-11-03T06:17:45.293Z,-11127.91
2022-11-03T06:20:53.986Z,-11136.03
2022-11-03T06:24:01.737Z,-11146.44
2022-11-03T06:27:11.921Z,-11146.72
2022-11-03T06:30:25.243Z,-11151.22
2022-11-03T06:33:35.159Z,-11144.63
2022-11-03T06:36:41.524Z,-11158.53
2022-11-03T06:39:49.853Z,-11159.09
2022-11-03T06:42:58.612Z,-11160.50
2022-11-03T06:46:14.303Z,-11170.34
2022-11-03T06:49:29.886Z,-11173.28
2022-11-03T06:52:42.933Z,-11177.34
2022-11-03T06:55:50.961Z,-11183.25
2022-11-03T06:58:58.689Z,-11190.56
2022-11-03T07:02:04.924Z,-11193.94
2022-11-03T07:05:23.041Z,-11187.63
2022-11-03T07:08:33.350Z,-11193.94
2022-11-03T07:11:45.117Z,-11200.69
2022-11-03T07:14:50.990Z,-11202.09
2022-11-03T07:17:57.012Z,-11202.66
2022-11-03T07:21:08.415Z,-11216.72
2022-11-03T07:24:20.145Z,-11233.59
2022-11-03T07:27:30.193Z,-11229.53
2022-11-03T07:30:37.757Z,-11235.31
2022-11-03T07:33:44.103Z,-11252.88
2022-11-03T07:36:55.663Z,-11258.78
2022-11-03T07:40:02.130Z,-11251.75
2022-11-03T07:43:17.490Z,-11262.16
2022-11-03T07:46:25.030Z,-11259.06
2022-11-03T07:49:32.008Z,-11262.59
2022-11-03T07:52:37.953Z,-11265.41
2022-11-03T07:55:45.896Z,-11280.47
2022-11-03T07:58:56.929Z,-11292.44
2022-11-03T08:02:04.247Z,-11301.16
2022-11-03T08:05:10.660Z,-11302.56
2022-11-03T08:08:16.890Z,-11317.78
2022-11-03T08:11:27.891Z,-11323.25
2022-11-03T08:14:38.046Z,-11319.87
2022-11-03T08:17:44.586Z,-11325.38
2022-11-03T08:20:50.686Z,-11337.63
2022-11-03T08:23:57.011Z,-11346.22
2022-11-03T08:27:03.610Z,-11339.87
2022-11-03T08:30:11.601Z,-11340.88
2022-11-03T08:33:18.105Z,-11341.44
2022-11-03T08:36:24.242Z,-11345.38
2022-11-03T08:39:31.445Z,-11354.25
2022-11-03T08:42:37.540Z,-11364.81
2022-11-03T08:45:44.675Z,-11372.16
2022-11-03T08:48:52.035Z,-11383.84
2022-11-03T08:51:58.227Z,-11391.16
2022-11-03T08:55:04.374Z,-11376.66
2022-11-03T08:58:10.675Z,-11385.09
2022-11-03T09:01:18.872Z,-11383.97
2022-11-03T09:04:24.948Z,-11385.94
2022-11-03T09:10:57.718Z,-11391.16
2022-11-03T09:14:04.543Z,-11393.56
2022-11-03T09:17:12.293Z,-11389.03
2022-11-03T09:20:18.670Z,-11398.78
2022-11-03T09:23:25.097Z,-11392.00
2022-11-03T09:26:31.251Z,-11395.53
2022-11-03T09:30:06.380Z,-11412.44
2022-11-03T09:33:05.146Z,-11401.88
2022-11-03T09:36:11.768Z,-11404.41
2022-11-03T09:39:18.257Z,-11402.72
2022-11-03T09:42:24.937Z,-11403.00
2022-11-03T09:45:31.044Z,-11413.44
2022-11-03T09:48:38.974Z,-11409.06
2022-11-03T09:51:46.008Z,-11413.56
2022-11-03T09:54:55.501Z,-11412.72
2022-11-03T09:58:07.650Z,-11418.38
2022-11-03T10:01:14.273Z,-11429.38
2022-11-03T10:04:27.119Z,-11440.50
2022-11-03T10:07:33.365Z,-11439.09
2022-11-03T10:10:41.498Z,-11437.81
2022-11-03T10:13:53.000Z,-11427.09
2022-11-03T10:17:01.086Z,-11437.13
2022-11-03T10:20:12.672Z,-11419.22
2022-11-03T10:23:19.214Z,-11433.31
2022-11-03T10:26:25.459Z,-11426.25
2022-11-03T10:29:37.244Z,-11433.03
2022-11-03T10:32:45.801Z,-11431.34
2022-11-03T10:35:53.403Z,-11436.28
2022-11-03T10:39:01.810Z,-11436.84
2022-11-03T10:42:17.661Z,-11447.25
2022-11-03T10:45:24.698Z,-11448.38
2022-11-03T10:48:33.094Z,-11442.06
2022-11-03T10:51:41.334Z,-11450.38
2022-11-03T10:54:47.911Z,-11453.63
2022-11-03T10:57:56.734Z,-11447.97
2022-11-03T11:01:03.215Z,-11442.63
2022-11-03T11:04:09.935Z,-11443.47
2022-11-03T11:07:28.209Z,-11444.03
2022-11-03T11:10:35.126Z,-11447.53
2022-11-03T11:13:41.925Z,-11448.09
2022-11-03T11:16:53.150Z,-11456.28
2022-11-03T11:20:43.973Z,-11453.91
2022-11-03T11:23:53.094Z,-11456.56
2022-11-03T11:26:59.123Z,-11460.53
2022-11-03T11:30:07.522Z,-11461.66
2022-11-03T11:33:15.793Z,-11464.75
2022-11-03T11:36:25.075Z,-11456.44
2022-11-03T11:39:47.909Z,-11453.91
2022-11-03T11:43:28.027Z,-11460.09
2022-11-03T11:46:42.398Z,-11461.94
2022-11-03T11:49:48.553Z,-11466.72
2022-11-03T11:52:59.196Z,-11468.28
2022-11-03T11:56:10.173Z,-11467.16
2022-11-03T11:59:24.623Z,-11468.00
2022-11-03T12:02:32.357Z,-11465.88
2022-11-03T12:05:38.770Z,-11465.44
2022-11-03T12:08:45.304Z,-11469.41
2022-11-03T12:11:56.448Z,-11467.16
2022-11-03T12:15:03.088Z,-11463.75
2022-11-03T12:18:31.965Z,-11466.31
2022-11-03T12:21:48.756Z,-11471.09
2022-11-03T12:24:56.185Z,-11477.16
2022-11-03T12:28:04.224Z,-11482.66
2022-11-03T12:31:10.595Z,-11482.25
2022-11-03T12:34:17.156Z,-11480.97
2022-11-03T12:37:23.937Z,-11482.09
2022-11-03T12:40:30.535Z,-11478.84
2022-11-03T12:43:38.620Z,-11475.75
2022-11-03T12:46:45.212Z,-11477.88
2022-11-03T12:49:51.542Z,-11477.03
2022-11-03T12:52:58.006Z,-11474.63
2022-11-03T12:56:04.359Z,-11478.72
2022-11-03T12:59:12.311Z,-11479.84
2022-11-03T13:02:18.922Z,-11480.97
2022-11-03T13:05:25.948Z,-11481.97
2022-11-03T13:08:32.314Z,-11480.53
2022-11-03T13:11:55.968Z,-11479.28
2022-11-03T13:15:05.138Z,-11477.03
2022-11-03T13:18:14.130Z,-11476.75
2022-11-03T13:21:20.633Z,-11473.63
2022-11-03T13:24:26.544Z,-11473.34
2022-11-03T13:27:32.451Z,-11470.94
2022-11-03T13:30:40.514Z,-11473.34
2022-11-03T13:33:46.926Z,-11472.50
2022-11-03T13:36:52.866Z,-11475.34
2022-11-03T13:39:59.069Z,-11469.41
2022-11-03T13:43:05.392Z,-11470.53
2022-11-03T13:46:13.516Z,-11473.63
2022-11-03T13:50:07.772Z,-11473.63
2022-11-03T13:52:47.772Z,-11475.91
2022-11-03T13:55:56.241Z,-11472.94
2022-11-03T14:05:58.923Z,-11458.97
2022-11-03T14:09:05.201Z,-11456.72
2022-11-03T14:12:29.128Z,-11453.91
2022-11-03T14:15:35.336Z,-11448.38
2022-11-03T14:18:43.053Z,-11449.66
2022-11-03T14:21:49.465Z,-11443.75
2022-11-03T14:24:55.633Z,-11444.88
2022-11-03T14:28:02.058Z,-11440.34
2022-11-03T14:31:08.692Z,-11437.41
2022-11-03T14:34:16.868Z,-11435.00
2022-11-03T14:37:25.532Z,-11433.88
2022-11-03T14:40:49.465Z,-11429.09
2022-11-03T14:43:55.581Z,-11424.16
2022-11-03T14:47:02.852Z,-11418.78
2022-11-03T14:50:11.171Z,-11414.97
2022-11-03T14:53:17.818Z,-11407.66
2022-11-03T14:56:23.981Z,-11400.88
2022-11-03T14:59:30.419Z,-11395.25
2022-11-03T15:02:37.197Z,-11397.78
2022-11-03T15:05:47.724Z,-11392.28
2022-11-03T15:08:56.613Z,-11386.38
2022-11-03T15:12:03.509Z,-11389.19
2022-11-03T15:15:11.426Z,-11380.75
2022-11-03T15:18:18.291Z,-11378.34
2022-11-03T15:21:26.146Z,-11379.75
2022-11-03T15:27:59.284Z,-11365.66
2022-11-03T15:31:05.710Z,-11361.56
2022-11-03T15:34:12.652Z,-11366.94
2022-11-03T15:37:20.717Z,-11361.44
2022-11-03T15:40:27.800Z,-11357.78
2022-11-03T15:43:33.870Z,-11353.53
2022-11-03T15:46:40.162Z,-11351.84
2022-11-03T15:49:46.521Z,-11347.91
2022-11-03T15:52:54.034Z,-11341.44
2022-11-03T15:56:00.454Z,-11339.87
2022-11-03T15:59:07.400Z,-11333.56
2022-11-03T16:02:35.721Z,-11330.72
2022-11-03T16:05:39.609Z,-11334.38
2022-11-03T16:08:47.549Z,-11331.44
2022-11-03T16:11:53.985Z,-11323.13
2022-11-03T16:15:00.093Z,-11323.13
2022-11-03T16:18:06.278Z,-11321.72
2022-11-03T16:21:12.823Z,-11324.25
2022-11-03T16:24:20.254Z,-11313.69
2022-11-03T16:27:26.486Z,-11314.69
2022-11-03T16:30:33.649Z,-11317.22
2022-11-03T16:33:39.873Z,-11313.13
2022-11-03T16:36:45.821Z,-11305.38
2022-11-03T16:39:53.709Z,-11303.13
2022-11-03T16:42:59.630Z,-11299.47
2022-11-03T16:46:05.915Z,-11310.44
2022-11-03T16:49:12.105Z,-11315.94
2022-11-03T16:52:18.653Z,-11310.31
2022-11-03T16:55:26.475Z,-11302.56
2022-11-03T16:58:33.329Z,-11304.81
2022-11-03T17:01:40.755Z,-11304.81
2022-11-03T17:04:49.449Z,-11302.84
2022-11-03T17:07:56.724Z,-11293.00
2022-11-03T17:11:05.021Z,-11293.56
2022-11-03T17:14:14.902Z,-11295.94
2022-11-03T17:17:21.746Z,-11293.41
2022-11-03T17:20:28.508Z,-11296.66
2022-11-03T17:23:34.691Z,-11293.56
2022-11-03T17:26:51.803Z,-11295.09
2022-11-03T17:30:02.171Z,-11296.09
2022-11-03T17:33:10.327Z,-11289.63
2022-11-03T17:36:16.745Z,-11283.69
2022-11-03T17:39:29.301Z,-11279.47
2022-11-03T17:42:37.282Z,-11276.66
2022-11-03T17:45:43.168Z,-11275.25
2022-11-03T17:48:49.445Z,-11278.63
2022-11-03T17:51:55.634Z,-11279.47
2022-11-03T17:55:04.604Z,-11273.00
2022-11-03T17:58:12.845Z,-11273.84
2022-11-03T18:01:23.441Z,-11275.13
2022-11-03T18:04:29.985Z,-11270.91
2022-11-03T18:07:36.014Z,-11267.81
2022-11-03T18:10:44.469Z,-11271.75
2022-11-03T18:13:51.121Z,-11274.00
2022-11-03T18:16:58.250Z,-11265.13
2022-11-03T18:20:04.931Z,-11255.41
2022-11-03T18:23:17.191Z,-11250.78
2022-11-03T18:26:24.938Z,-11241.91
2022-11-03T18:29:32.624Z,-11239.50
2022-11-03T18:32:40.336Z,-11238.09
2022-11-03T18:35:46.356Z,-11243.59
2022-11-03T18:38:57.238Z,-11239.22
2022-11-03T18:42:03.306Z,-11244.31
2022-11-03T18:45:14.732Z,-11237.84
2022-11-03T18:48:20.934Z,-11233.59
2022-11-03T18:51:27.299Z,-11227.00
2022-11-03T18:54:35.654Z,-11227.28
2022-11-03T18:57:42.420Z,-11223.91
2022-11-03T19:00:50.427Z,-11217.00
2022-11-03T19:03:57.537Z,-11219.53
2022-11-03T19:07:08.374Z,-11222.22
2022-11-03T19:10:18.067Z,-11218.97
2022-11-03T19:13:29.906Z,-11217.84
2022-11-03T19:16:39.812Z,-11218.84
2022-11-03T19:19:56.696Z,-11212.78
2022-11-03T19:23:02.880Z,-11218.00
2022-11-03T19:26:20.506Z,-11200.84
2022-11-03T19:29:29.821Z,-11206.31
2022-11-03T19:32:43.629Z,-11200.56
2022-11-03T19:35:50.859Z,-11201.13
2022-11-03T19:38:57.093Z,-11198.16
2022-11-03T19:42:29.034Z,-11199.56
2022-11-03T19:45:35.090Z,-11197.59
2022-11-03T19:48:42.686Z,-11190.00
2022-11-03T19:51:49.174Z,-11186.63
2022-11-03T19:54:55.818Z,-11193.94
2022-11-03T19:58:08.791Z,-11193.25
2022-11-03T20:01:15.361Z,-11173.97
2022-11-03T20:04:22.763Z,-11174.41
2022-11-03T20:07:31.877Z,-11173.72
2022-11-03T20:10:38.330Z,-11180.44
2022-11-03T20:13:44.957Z,-11177.22
2022-11-03T20:16:50.865Z,-11183.25
2022-11-03T20:19:58.364Z,-11182.56
2022-11-03T20:23:06.197Z,-11185.50
2022-11-03T20:26:15.376Z,-11184.66
2022-11-03T20:29:21.419Z,-11183.25
2022-11-03T20:32:27.247Z,-11184.66
2022-11-03T20:35:37.889Z,-11173.16
2022-11-03T20:38:44.257Z,-11155.72
2022-11-03T20:41:52.310Z,-11144.91
2022-11-03T20:44:58.642Z,-11150.09
2022-11-03T20:48:05.221Z,-11145.03
2022-11-03T20:51:16.224Z,-11151.50
2022-11-03T20:54:22.973Z,-11158.81
2022-11-03T20:57:29.114Z,-11161.63
2022-11-03T21:00:40.056Z,-11160.78
2022-11-03T21:03:58.920Z,-11150.94
2022-11-03T21:07:07.699Z,-11148.81
2022-11-03T21:10:20.170Z,-11158.66
2022-11-03T21:13:26.711Z,-11153.88
2022-11-03T21:16:50.255Z,-11152.06
2022-11-03T21:20:12.013Z,-11159.38
2022-11-03T21:23:23.631Z,-11156.84
2022-11-03T21:26:29.845Z,-11149.94
2022-11-03T21:30:05.295Z,-11140.81
2022-11-03T21:33:02.441Z,-11135.34
2022-11-03T21:36:09.270Z,-11131.25
2022-11-03T21:39:16.734Z,-11126.34
2022-11-03T21:42:40.172Z,-11129.59
2022-11-03T21:45:46.441Z,-11127.34
2022-11-03T21:49:09.221Z,-11142.50
2022-11-03T21:52:17.416Z,-11134.50
2022-11-03T21:55:25.011Z,-11135.63
2022-11-03T21:58:31.408Z,-11134.34
2022-11-03T22:01:37.651Z,-11112.72
2022-11-03T22:04:44.047Z,-11111.31
2022-11-03T22:07:50.529Z,-11120.44
2022-11-03T22:11:18.631Z,-11112.88
2022-11-03T22:14:26.683Z,-11120.03
2022-11-03T22:17:32.233Z,-11119.59
2022-11-03T22:21:04.571Z,-11116.38
2022-11-03T22:24:28.062Z,-11129.72
2022-11-03T22:27:36.769Z,-11130.69
2022-11-03T22:31:15.088Z,-11123.13
2022-11-03T22:34:38.822Z,-11096.72
2022-11-03T22:37:44.760Z,-11096.84
2022-11-03T22:41:10.675Z,-11093.34
2022-11-03T22:44:35.705Z,-11119.88
2022-11-03T22:47:41.851Z,-11125.66
2022-11-03T22:50:48.228Z,-11111.59
2022-11-03T22:54:12.724Z,-11102.62
2022-11-03T22:57:19.029Z,-11096.16
2022-11-03T23:00:26.412Z,-11100.50
2022-11-03T23:03:33.676Z,-11100.94
2022-11-03T23:06:41.640Z,-11101.22
2022-11-03T23:09:47.928Z,-11086.03
2022-11-03T23:12:53.937Z,-11079.72
2022-11-03T23:16:01.314Z,-11088.00
2022-11-03T23:19:26.060Z,-11093.78
2022-11-03T23:22:31.921Z,-11095.59
2022-11-03T23:25:37.093Z,-11095.16
2022-11-03T23:28:44.413Z,-11099.53
2022-11-03T23:31:52.142Z,-11100.22
2022-11-03T23:34:58.017Z,-11105.44
2022-11-03T23:38:03.933Z,-11096.16
2022-11-03T23:41:12.650Z,-11104.88
2022-11-03T23:44:18.743Z,-11077.47
2022-11-03T23:47:44.010Z,-11056.84
2022-11-03T23:50:50.211Z,-11059.66
2022-11-03T23:53:57.602Z,-11068.63
2022-11-03T23:57:21.527Z,-11086.31
